sensor_id;sensor_type;location;lat;lon;timestamp;P1;durP1;ratioP1;P2;durP2;ratioP2
34896;SDS011;43407;51.828;-2.298;2023-07-13T00:02:07;6.97;;;2.85;;
34896;SDS011;43407;51.828;-2.298;2023-07-13T00:04:32;7.50;;;3.05;;
34896;SDS011;43407;51.828;-2.298;2023-07-13T00:06:58;4.25;;;2.10;;
34896;SDS011;43407;51.828;-2.298;2023-07-13T00:09:24;7.00;;;2.40;;
34896;SDS011;43407;51.828;-2.298;2023-07-13T00:11:51;4.50;;;2.20;;
34896;SDS011;43407;51.828;-2.298;2023-07-13T00:14:17;6.18;;;2.38;;
34896;SDS011;43407;51.828;-2.298;2023-07-13T00:16:43;7.28;;;2.83;;
34896;SDS011;43407;51.828;-2.298;2023-07-13T00:19:10;5.97;;;2.50;;
34896;SDS011;43407;51.828;-2.298;2023-07-13T00:21:36;7.55;;;2.90;;
34896;SDS011;43407;51.828;-2.298;2023-07-13T00:24:02;6.32;;;2.88;;
34896;SDS011;43407;51.828;-2.298;2023-07-13T00:26:28;5.80;;;2.28;;
34896;SDS011;43407;51.828;-2.298;2023-07-13T00:28:54;7.43;;;2.58;;
34896;SDS011;43407;51.828;-2.298;2023-07-13T00:31:19;7.85;;;2.83;;
34896;SDS011;43407;51.828;-2.298;2023-07-13T00:33:45;8.25;;;2.72;;
34896;SDS011;43407;51.828;-2.298;2023-07-13T00:36:11;6.03;;;2.70;;
34896;SDS011;43407;51.828;-2.298;2023-07-13T00:38:37;5.68;;;2.30;;
34896;SDS011;43407;51.828;-2.298;2023-07-13T00:41:03;8.43;;;2.80;;
34896;SDS011;43407;51.828;-2.298;2023-07-13T00:43:29;5.28;;;1.92;;
34896;SDS011;43407;51.828;-2.298;2023-07-13T00:48:21;4.38;;;2.22;;
34896;SDS011;43407;51.828;-2.298;2023-07-13T00:50:50;5.95;;;2.53;;
34896;SDS011;43407;51.828;-2.298;2023-07-13T00:53:18;6.45;;;2.50;;
34896;SDS011;43407;51.828;-2.298;2023-07-13T00:55:44;3.42;;;2.13;;
34896;SDS011;43407;51.828;-2.298;2023-07-13T00:58:10;4.18;;;2.30;;
34896;SDS011;43407;51.828;-2.298;2023-07-13T01:00:36;7.70;;;2.72;;
34896;SDS011;43407;51.828;-2.298;2023-07-13T01:03:03;4.20;;;2.20;;
34896;SDS011;43407;51.828;-2.298;2023-07-13T01:05:29;6.68;;;2.38;;
34896;SDS011;43407;51.828;-2.298;2023-07-13T01:07:57;5.10;;;2.17;;
34896;SDS011;43407;51.828;-2.298;2023-07-13T01:10:23;6.28;;;2.10;;
34896;SDS011;43407;51.828;-2.298;2023-07-13T01:12:49;7.70;;;2.53;;
34896;SDS011;43407;51.828;-2.298;2023-07-13T01:18:00;4.15;;;2.15;;
34896;SDS011;43407;51.828;-2.298;2023-07-13T01:20:25;7.15;;;2.15;;
34896;SDS011;43407;51.828;-2.298;2023-07-13T01:22:51;3.67;;;1.90;;
34896;SDS011;43407;51.828;-2.298;2023-07-13T01:25:17;4.63;;;2.30;;
34896;SDS011;43407;51.828;-2.298;2023-07-13T01:27:43;9.07;;;2.13;;
34896;SDS011;43407;51.828;-2.298;2023-07-13T01:30:09;5.20;;;2.20;;
34896;SDS011;43407;51.828;-2.298;2023-07-13T01:32:35;6.45;;;2.10;;
34896;SDS011;43407;51.828;-2.298;2023-07-13T01:35:01;4.85;;;2.08;;
34896;SDS011;43407;51.828;-2.298;2023-07-13T01:37:27;4.70;;;2.63;;
34896;SDS011;43407;51.828;-2.298;2023-07-13T01:39:57;5.35;;;2.20;;
34896;SDS011;43407;51.828;-2.298;2023-07-13T01:42:22;5.60;;;2.25;;
34896;SDS011;43407;51.828;-2.298;2023-07-13T01:44:48;5.28;;;2.42;;
34896;SDS011;43407;51.828;-2.298;2023-07-13T01:47:13;6.25;;;2.30;;
34896;SDS011;43407;51.828;-2.298;2023-07-13T01:49:39;5.45;;;2.38;;
34896;SDS011;43407;51.828;-2.298;2023-07-13T01:52:06;9.95;;;2.15;;
34896;SDS011;43407;51.828;-2.298;2023-07-13T01:54:31;3.80;;;2.70;;
34896;SDS011;43407;51.828;-2.298;2023-07-13T01:56:58;6.45;;;2.50;;
34896;SDS011;43407;51.828;-2.298;2023-07-13T01:59:24;4.68;;;2.28;;
34896;SDS011;43407;51.828;-2.298;2023-07-13T02:01:50;6.22;;;2.40;;
34896;SDS011;43407;51.828;-2.298;2023-07-13T02:04:16;3.80;;;2.20;;
34896;SDS011;43407;51.828;-2.298;2023-07-13T02:06:41;4.72;;;2.10;;
34896;SDS011;43407;51.828;-2.298;2023-07-13T02:09:07;6.38;;;2.15;;
34896;SDS011;43407;51.828;-2.298;2023-07-13T02:11:32;3.03;;;1.95;;
34896;SDS011;43407;51.828;-2.298;2023-07-13T02:14:01;3.00;;;1.77;;
34896;SDS011;43407;51.828;-2.298;2023-07-13T02:16:28;3.80;;;2.00;;
34896;SDS011;43407;51.828;-2.298;2023-07-13T02:18:54;7.32;;;1.90;;
34896;SDS011;43407;51.828;-2.298;2023-07-13T02:21:20;7.85;;;2.22;;
34896;SDS011;43407;51.828;-2.298;2023-07-13T02:23:47;6.70;;;1.85;;
34896;SDS011;43407;51.828;-2.298;2023-07-13T02:26:12;6.05;;;2.25;;
34896;SDS011;43407;51.828;-2.298;2023-07-13T02:28:38;4.65;;;2.28;;
34896;SDS011;43407;51.828;-2.298;2023-07-13T02:31:04;4.03;;;2.30;;
34896;SDS011;43407;51.828;-2.298;2023-07-13T02:33:34;5.65;;;2.05;;
34896;SDS011;43407;51.828;-2.298;2023-07-13T02:35:59;7.13;;;2.55;;
34896;SDS011;43407;51.828;-2.298;2023-07-13T02:38:25;6.43;;;2.40;;
34896;SDS011;43407;51.828;-2.298;2023-07-13T02:40:51;7.50;;;2.10;;
34896;SDS011;43407;51.828;-2.298;2023-07-13T02:43:16;3.47;;;1.92;;
34896;SDS011;43407;51.828;-2.298;2023-07-13T02:45:45;5.70;;;2.25;;
34896;SDS011;43407;51.828;-2.298;2023-07-13T02:48:12;5.07;;;2.15;;
34896;SDS011;43407;51.828;-2.298;2023-07-13T02:50:38;5.78;;;2.00;;
34896;SDS011;43407;51.828;-2.298;2023-07-13T02:53:04;7.68;;;2.10;;
34896;SDS011;43407;51.828;-2.298;2023-07-13T02:55:29;9.48;;;2.30;;
34896;SDS011;43407;51.828;-2.298;2023-07-13T02:57:55;7.05;;;2.20;;
34896;SDS011;43407;51.828;-2.298;2023-07-13T03:00:22;3.72;;;1.83;;
34896;SDS011;43407;51.828;-2.298;2023-07-13T03:02:47;4.45;;;2.13;;
34896;SDS011;43407;51.828;-2.298;2023-07-13T03:05:13;5.35;;;2.10;;
34896;SDS011;43407;51.828;-2.298;2023-07-13T03:07:40;5.10;;;2.17;;
34896;SDS011;43407;51.828;-2.298;2023-07-13T03:10:07;6.57;;;2.13;;
34896;SDS011;43407;51.828;-2.298;2023-07-13T03:12:34;4.50;;;1.70;;
34896;SDS011;43407;51.828;-2.298;2023-07-13T03:14:59;3.83;;;1.90;;
34896;SDS011;43407;51.828;-2.298;2023-07-13T03:17:25;6.60;;;1.80;;
34896;SDS011;43407;51.828;-2.298;2023-07-13T03:19:50;8.18;;;2.05;;
34896;SDS011;43407;51.828;-2.298;2023-07-13T03:22:17;5.25;;;2.30;;
34896;SDS011;43407;51.828;-2.298;2023-07-13T03:24:43;5.75;;;2.03;;
34896;SDS011;43407;51.828;-2.298;2023-07-13T03:27:09;4.35;;;2.38;;
34896;SDS011;43407;51.828;-2.298;2023-07-13T03:29:34;11.88;;;3.35;;
34896;SDS011;43407;51.828;-2.298;2023-07-13T03:32:00;7.13;;;1.95;;
34896;SDS011;43407;51.828;-2.298;2023-07-13T03:34:26;7.35;;;2.03;;
34896;SDS011;43407;51.828;-2.298;2023-07-13T03:36:53;3.47;;;1.80;;
34896;SDS011;43407;51.828;-2.298;2023-07-13T03:39:20;4.45;;;1.83;;
34896;SDS011;43407;51.828;-2.298;2023-07-13T03:41:45;5.50;;;2.20;;
34896;SDS011;43407;51.828;-2.298;2023-07-13T03:44:11;5.47;;;1.90;;
34896;SDS011;43407;51.828;-2.298;2023-07-13T03:46:37;4.07;;;1.88;;
34896;SDS011;43407;51.828;-2.298;2023-07-13T03:49:03;5.60;;;1.98;;
34896;SDS011;43407;51.828;-2.298;2023-07-13T03:51:30;4.75;;;2.13;;
34896;SDS011;43407;51.828;-2.298;2023-07-13T03:53:55;5.60;;;2.17;;
34896;SDS011;43407;51.828;-2.298;2023-07-13T03:56:21;5.57;;;2.35;;
34896;SDS011;43407;51.828;-2.298;2023-07-13T03:58:47;6.38;;;1.95;;
34896;SDS011;43407;51.828;-2.298;2023-07-13T04:01:15;6.60;;;2.03;;
34896;SDS011;43407;51.828;-2.298;2023-07-13T04:03:41;9.63;;;2.22;;
34896;SDS011;43407;51.828;-2.298;2023-07-13T04:06:08;3.25;;;1.70;;
34896;SDS011;43407;51.828;-2.298;2023-07-13T04:08:40;4.47;;;1.98;;
34896;SDS011;43407;51.828;-2.298;2023-07-13T04:11:06;7.35;;;1.80;;
34896;SDS011;43407;51.828;-2.298;2023-07-13T04:13:31;5.15;;;1.77;;
34896;SDS011;43407;51.828;-2.298;2023-07-13T04:15:57;3.75;;;1.92;;
34896;SDS011;43407;51.828;-2.298;2023-07-13T04:18:23;4.45;;;1.92;;
34896;SDS011;43407;51.828;-2.298;2023-07-13T04:20:49;6.43;;;2.03;;
34896;SDS011;43407;51.828;-2.298;2023-07-13T04:23:18;5.43;;;2.13;;
34896;SDS011;43407;51.828;-2.298;2023-07-13T04:25:48;4.30;;;1.85;;
34896;SDS011;43407;51.828;-2.298;2023-07-13T04:28:15;4.75;;;1.83;;
34896;SDS011;43407;51.828;-2.298;2023-07-13T04:30:42;2.78;;;1.60;;
34896;SDS011;43407;51.828;-2.298;2023-07-13T04:33:08;6.40;;;2.20;;
34896;SDS011;43407;51.828;-2.298;2023-07-13T04:35:34;6.88;;;2.08;;
34896;SDS011;43407;51.828;-2.298;2023-07-13T04:38:00;3.55;;;2.10;;
34896;SDS011;43407;51.828;-2.298;2023-07-13T04:40:26;3.67;;;1.88;;
34896;SDS011;43407;51.828;-2.298;2023-07-13T04:42:52;3.03;;;1.83;;
34896;SDS011;43407;51.828;-2.298;2023-07-13T04:45:18;2.95;;;2.08;;
34896;SDS011;43407;51.828;-2.298;2023-07-13T04:47:44;5.35;;;2.13;;
34896;SDS011;43407;51.828;-2.298;2023-07-13T04:50:12;4.18;;;2.20;;
34896;SDS011;43407;51.828;-2.298;2023-07-13T04:52:40;4.53;;;2.20;;
34896;SDS011;43407;51.828;-2.298;2023-07-13T04:55:07;4.60;;;2.53;;
34896;SDS011;43407;51.828;-2.298;2023-07-13T04:57:33;5.80;;;2.70;;
34896;SDS011;43407;51.828;-2.298;2023-07-13T04:59:58;8.02;;;2.65;;
34896;SDS011;43407;51.828;-2.298;2023-07-13T05:02:26;7.80;;;3.10;;
34896;SDS011;43407;51.828;-2.298;2023-07-13T05:04:53;7.95;;;3.17;;
34896;SDS011;43407;51.828;-2.298;2023-07-13T05:07:18;10.32;;;3.55;;
34896;SDS011;43407;51.828;-2.298;2023-07-13T05:09:44;3.97;;;2.70;;
34896;SDS011;43407;51.828;-2.298;2023-07-13T05:12:10;5.65;;;2.83;;
34896;SDS011;43407;51.828;-2.298;2023-07-13T05:14:35;5.28;;;2.80;;
34896;SDS011;43407;51.828;-2.298;2023-07-13T05:17:01;3.75;;;2.60;;
34896;SDS011;43407;51.828;-2.298;2023-07-13T05:19:27;4.55;;;2.63;;
34896;SDS011;43407;51.828;-2.298;2023-07-13T05:21:53;4.93;;;2.75;;
34896;SDS011;43407;51.828;-2.298;2023-07-13T05:24:18;4.15;;;2.70;;
34896;SDS011;43407;51.828;-2.298;2023-07-13T05:26:44;6.35;;;2.97;;
34896;SDS011;43407;51.828;-2.298;2023-07-13T05:29:09;3.75;;;2.30;;
34896;SDS011;43407;51.828;-2.298;2023-07-13T05:31:35;3.83;;;2.72;;
34896;SDS011;43407;51.828;-2.298;2023-07-13T05:34:01;5.68;;;3.05;;
34896;SDS011;43407;51.828;-2.298;2023-07-13T05:36:27;5.55;;;2.85;;
34896;SDS011;43407;51.828;-2.298;2023-07-13T05:38:53;5.07;;;2.58;;
34896;SDS011;43407;51.828;-2.298;2023-07-13T05:41:18;4.43;;;2.45;;
34896;SDS011;43407;51.828;-2.298;2023-07-13T05:43:44;5.10;;;2.75;;
34896;SDS011;43407;51.828;-2.298;2023-07-13T05:46:09;4.43;;;3.10;;
34896;SDS011;43407;51.828;-2.298;2023-07-13T05:48:35;8.05;;;3.40;;
34896;SDS011;43407;51.828;-2.298;2023-07-13T05:51:01;4.43;;;2.75;;
34896;SDS011;43407;51.828;-2.298;2023-07-13T05:53:26;6.80;;;2.40;;
34896;SDS011;43407;51.828;-2.298;2023-07-13T05:55:53;6.35;;;2.80;;
34896;SDS011;43407;51.828;-2.298;2023-07-13T05:58:19;4.95;;;2.45;;
34896;SDS011;43407;51.828;-2.298;2023-07-13T06:00:45;4.47;;;2.17;;
34896;SDS011;43407;51.828;-2.298;2023-07-13T06:03:12;4.78;;;2.50;;
34896;SDS011;43407;51.828;-2.298;2023-07-13T06:05:37;5.78;;;2.28;;
34896;SDS011;43407;51.828;-2.298;2023-07-13T06:08:03;3.03;;;2.17;;
34896;SDS011;43407;51.828;-2.298;2023-07-13T06:10:29;6.25;;;2.38;;
34896;SDS011;43407;51.828;-2.298;2023-07-13T06:12:57;4.50;;;2.22;;
34896;SDS011;43407;51.828;-2.298;2023-07-13T06:15:22;4.85;;;2.20;;
34896;SDS011;43407;51.828;-2.298;2023-07-13T06:17:48;4.70;;;2.25;;
34896;SDS011;43407;51.828;-2.298;2023-07-13T06:20:14;5.15;;;2.70;;
34896;SDS011;43407;51.828;-2.298;2023-07-13T06:22:40;4.80;;;2.65;;
34896;SDS011;43407;51.828;-2.298;2023-07-13T06:25:05;5.15;;;2.70;;
34896;SDS011;43407;51.828;-2.298;2023-07-13T06:27:31;3.67;;;2.25;;
34896;SDS011;43407;51.828;-2.298;2023-07-13T06:29:57;7.18;;;2.67;;
34896;SDS011;43407;51.828;-2.298;2023-07-13T06:32:23;4.60;;;2.65;;
34896;SDS011;43407;51.828;-2.298;2023-07-13T06:34:48;6.47;;;3.15;;
34896;SDS011;43407;51.828;-2.298;2023-07-13T06:37:16;6.47;;;3.60;;
34896;SDS011;43407;51.828;-2.298;2023-07-13T06:39:42;7.20;;;3.45;;
34896;SDS011;43407;51.828;-2.298;2023-07-13T06:42:08;4.38;;;3.85;;
34896;SDS011;43407;51.828;-2.298;2023-07-13T06:44:33;7.75;;;3.78;;
34896;SDS011;43407;51.828;-2.298;2023-07-13T06:46:59;6.40;;;3.80;;
34896;SDS011;43407;51.828;-2.298;2023-07-13T06:49:24;6.18;;;3.50;;
34896;SDS011;43407;51.828;-2.298;2023-07-13T06:51:51;6.22;;;3.78;;
34896;SDS011;43407;51.828;-2.298;2023-07-13T06:54:16;8.35;;;4.05;;
34896;SDS011;43407;51.828;-2.298;2023-07-13T06:56:41;10.98;;;4.05;;
34896;SDS011;43407;51.828;-2.298;2023-07-13T06:59:07;6.13;;;3.90;;
34896;SDS011;43407;51.828;-2.298;2023-07-13T07:01:33;7.80;;;4.45;;
34896;SDS011;43407;51.828;-2.298;2023-07-13T07:03:59;5.03;;;3.63;;
34896;SDS011;43407;51.828;-2.298;2023-07-13T07:06:24;6.00;;;4.00;;
34896;SDS011;43407;51.828;-2.298;2023-07-13T07:08:50;6.60;;;4.50;;
34896;SDS011;43407;51.828;-2.298;2023-07-13T07:11:17;6.60;;;4.15;;
34896;SDS011;43407;51.828;-2.298;2023-07-13T07:13:44;6.45;;;3.70;;
34896;SDS011;43407;51.828;-2.298;2023-07-13T07:16:10;7.35;;;4.07;;
34896;SDS011;43407;51.828;-2.298;2023-07-13T07:18:36;9.57;;;4.45;;
34896;SDS011;43407;51.828;-2.298;2023-07-13T07:21:01;5.47;;;4.10;;
34896;SDS011;43407;51.828;-2.298;2023-07-13T07:23:27;6.82;;;4.20;;
34896;SDS011;43407;51.828;-2.298;2023-07-13T07:25:53;5.55;;;4.20;;
34896;SDS011;43407;51.828;-2.298;2023-07-13T07:28:19;9.93;;;4.68;;
34896;SDS011;43407;51.828;-2.298;2023-07-13T07:30:45;7.75;;;4.28;;
34896;SDS011;43407;51.828;-2.298;2023-07-13T07:33:11;4.97;;;3.90;;
34896;SDS011;43407;51.828;-2.298;2023-07-13T07:35:37;7.38;;;4.60;;
34896;SDS011;43407;51.828;-2.298;2023-07-13T07:38:03;5.28;;;3.95;;
34896;SDS011;43407;51.828;-2.298;2023-07-13T07:40:29;7.25;;;3.85;;
34896;SDS011;43407;51.828;-2.298;2023-07-13T07:42:54;4.28;;;3.40;;
34896;SDS011;43407;51.828;-2.298;2023-07-13T07:45:20;4.03;;;3.45;;
34896;SDS011;43407;51.828;-2.298;2023-07-13T07:47:46;6.38;;;3.40;;
34896;SDS011;43407;51.828;-2.298;2023-07-13T07:50:12;4.35;;;3.13;;
34896;SDS011;43407;51.828;-2.298;2023-07-13T07:52:38;5.63;;;3.53;;
34896;SDS011;43407;51.828;-2.298;2023-07-13T07:55:04;5.55;;;2.95;;
34896;SDS011;43407;51.828;-2.298;2023-07-13T07:57:30;5.47;;;3.03;;
34896;SDS011;43407;51.828;-2.298;2023-07-13T07:59:56;5.05;;;3.00;;
34896;SDS011;43407;51.828;-2.298;2023-07-13T08:02:21;6.78;;;3.25;;
34896;SDS011;43407;51.828;-2.298;2023-07-13T08:04:47;6.43;;;3.20;;
34896;SDS011;43407;51.828;-2.298;2023-07-13T08:07:13;4.95;;;2.90;;
34896;SDS011;43407;51.828;-2.298;2023-07-13T08:09:38;5.10;;;2.85;;
34896;SDS011;43407;51.828;-2.298;2023-07-13T08:12:04;4.82;;;2.83;;
34896;SDS011;43407;51.828;-2.298;2023-07-13T08:14:30;6.80;;;3.38;;
34896;SDS011;43407;51.828;-2.298;2023-07-13T08:16:55;6.40;;;2.55;;
34896;SDS011;43407;51.828;-2.298;2023-07-13T08:19:21;3.88;;;2.40;;
34896;SDS011;43407;51.828;-2.298;2023-07-13T08:21:46;3.63;;;2.28;;
34896;SDS011;43407;51.828;-2.298;2023-07-13T08:24:14;9.07;;;2.40;;
34896;SDS011;43407;51.828;-2.298;2023-07-13T08:26:39;4.57;;;2.13;;
34896;SDS011;43407;51.828;-2.298;2023-07-13T08:29:05;4.25;;;1.95;;
34896;SDS011;43407;51.828;-2.298;2023-07-13T08:31:31;5.72;;;2.13;;
34896;SDS011;43407;51.828;-2.298;2023-07-13T08:33:56;6.32;;;2.10;;
34896;SDS011;43407;51.828;-2.298;2023-07-13T08:36:22;2.75;;;1.92;;
34896;SDS011;43407;51.828;-2.298;2023-07-13T08:38:47;5.78;;;1.90;;
34896;SDS011;43407;51.828;-2.298;2023-07-13T08:41:14;5.13;;;2.42;;
34896;SDS011;43407;51.828;-2.298;2023-07-13T08:43:42;4.10;;;2.00;;
34896;SDS011;43407;51.828;-2.298;2023-07-13T08:53:55;4.07;;;2.35;;
34896;SDS011;43407;51.828;-2.298;2023-07-13T08:56:24;3.67;;;2.38;;
34896;SDS011;43407;51.828;-2.298;2023-07-13T08:58:56;4.40;;;2.58;;
34896;SDS011;43407;51.828;-2.298;2023-07-13T09:01:27;6.32;;;2.25;;
34896;SDS011;43407;51.828;-2.298;2023-07-13T09:04:07;2.95;;;2.17;;
34896;SDS011;43407;51.828;-2.298;2023-07-13T09:06:49;3.13;;;2.30;;
34896;SDS011;43407;51.828;-2.298;2023-07-13T09:09:20;4.60;;;2.13;;
34896;SDS011;43407;51.828;-2.298;2023-07-13T09:16:44;3.88;;;1.88;;
34896;SDS011;43407;51.828;-2.298;2023-07-13T09:19:11;5.82;;;1.88;;
34896;SDS011;43407;51.828;-2.298;2023-07-13T09:21:42;4.57;;;2.10;;
34896;SDS011;43407;51.828;-2.298;2023-07-13T09:27:13;3.28;;;1.85;;
34896;SDS011;43407;51.828;-2.298;2023-07-13T09:29:46;4.43;;;1.90;;
34896;SDS011;43407;51.828;-2.298;2023-07-13T09:32:15;2.90;;;1.63;;
34896;SDS011;43407;51.828;-2.298;2023-07-13T09:34:49;4.38;;;1.40;;
34896;SDS011;43407;51.828;-2.298;2023-07-13T09:37:16;4.78;;;1.65;;
34896;SDS011;43407;51.828;-2.298;2023-07-13T09:39:42;4.28;;;1.52;;
34896;SDS011;43407;51.828;-2.298;2023-07-13T09:42:12;2.45;;;1.30;;
34896;SDS011;43407;51.828;-2.298;2023-07-13T09:47:25;3.63;;;1.60;;
34896;SDS011;43407;51.828;-2.298;2023-07-13T09:49:57;3.15;;;1.42;;
34896;SDS011;43407;51.828;-2.298;2023-07-13T09:52:27;2.90;;;1.55;;
34896;SDS011;43407;51.828;-2.298;2023-07-13T09:54:53;2.72;;;1.40;;
34896;SDS011;43407;51.828;-2.298;2023-07-13T09:57:25;2.60;;;1.38;;
34896;SDS011;43407;51.828;-2.298;2023-07-13T09:59:52;1.90;;;1.30;;
34896;SDS011;43407;51.828;-2.298;2023-07-13T10:07:28;3.03;;;1.35;;
34896;SDS011;43407;51.828;-2.298;2023-07-13T10:09:54;3.03;;;1.30;;
34896;SDS011;43407;51.828;-2.298;2023-07-13T10:12:21;1.65;;;1.13;;
34896;SDS011;43407;51.828;-2.298;2023-07-13T10:14:50;1.45;;;1.10;;
34896;SDS011;43407;51.828;-2.298;2023-07-13T10:17:20;1.95;;;1.25;;
34896;SDS011;43407;51.828;-2.298;2023-07-13T10:19:58;2.92;;;1.10;;
34896;SDS011;43407;51.828;-2.298;2023-07-13T10:22:31;3.30;;;1.00;;
34896;SDS011;43407;51.828;-2.298;2023-07-13T10:25:03;1.30;;;0.80;;
34896;SDS011;43407;51.828;-2.298;2023-07-13T10:27:43;1.08;;;0.90;;
34896;SDS011;43407;51.828;-2.298;2023-07-13T10:30:11;1.67;;;1.02;;
34896;SDS011;43407;51.828;-2.298;2023-07-13T10:32:40;1.80;;;1.02;;
34896;SDS011;43407;51.828;-2.298;2023-07-13T10:35:08;2.63;;;1.20;;
34896;SDS011;43407;51.828;-2.298;2023-07-13T10:37:41;3.15;;;1.20;;
34896;SDS011;43407;51.828;-2.298;2023-07-13T10:40:12;1.20;;;1.10;;
34896;SDS011;43407;51.828;-2.298;2023-07-13T10:42:40;1.95;;;1.20;;
34896;SDS011;43407;51.828;-2.298;2023-07-13T10:45:18;3.88;;;1.27;;
34896;SDS011;43407;51.828;-2.298;2023-07-13T10:47:46;2.92;;;1.08;;
34896;SDS011;43407;51.828;-2.298;2023-07-13T10:50:15;1.13;;;1.00;;
34896;SDS011;43407;51.828;-2.298;2023-07-13T10:52:48;0.82;;;0.80;;
34896;SDS011;43407;51.828;-2.298;2023-07-13T10:55:31;1.65;;;1.20;;
34896;SDS011;43407;51.828;-2.298;2023-07-13T10:58:40;4.05;;;1.05;;
34896;SDS011;43407;51.828;-2.298;2023-07-13T11:18:51;6.70;;;1.35;;
34896;SDS011;43407;51.828;-2.298;2023-07-13T11:21:21;2.75;;;1.40;;
34896;SDS011;43407;51.828;-2.298;2023-07-13T11:23:54;1.88;;;1.20;;
34896;SDS011;43407;51.828;-2.298;2023-07-13T11:31:40;5.97;;;1.35;;
34896;SDS011;43407;51.828;-2.298;2023-07-13T11:34:11;3.83;;;1.15;;
34896;SDS011;43407;51.828;-2.298;2023-07-13T11:36:38;3.65;;;1.27;;
34896;SDS011;43407;51.828;-2.298;2023-07-13T11:39:24;2.15;;;1.20;;
34896;SDS011;43407;51.828;-2.298;2023-07-13T11:41:56;2.70;;;1.55;;
34896;SDS011;43407;51.828;-2.298;2023-07-13T11:44:23;3.20;;;1.23;;
34896;SDS011;43407;51.828;-2.298;2023-07-13T11:46:52;1.27;;;0.98;;
34896;SDS011;43407;51.828;-2.298;2023-07-13T11:49:18;2.15;;;1.10;;
34896;SDS011;43407;51.828;-2.298;2023-07-13T11:51:45;1.80;;;1.20;;
34896;SDS011;43407;51.828;-2.298;2023-07-13T11:54:30;2.92;;;1.00;;
34896;SDS011;43407;51.828;-2.298;2023-07-13T11:57:21;3.88;;;1.10;;
34896;SDS011;43407;51.828;-2.298;2023-07-13T12:00:03;3.38;;;1.10;;
34896;SDS011;43407;51.828;-2.298;2023-07-13T12:02:32;3.13;;;1.30;;
34896;SDS011;43407;51.828;-2.298;2023-07-13T12:04:59;1.50;;;0.98;;
34896;SDS011;43407;51.828;-2.298;2023-07-13T12:07:27;2.40;;;1.20;;
34896;SDS011;43407;51.828;-2.298;2023-07-13T12:10:00;2.08;;;1.10;;
34896;SDS011;43407;51.828;-2.298;2023-07-13T12:12:47;1.83;;;1.20;;
34896;SDS011;43407;51.828;-2.298;2023-07-13T12:15:14;4.38;;;1.42;;
34896;SDS011;43407;51.828;-2.298;2023-07-13T12:17:40;2.40;;;1.30;;
34896;SDS011;43407;51.828;-2.298;2023-07-13T12:20:26;2.90;;;1.35;;
34896;SDS011;43407;51.828;-2.298;2023-07-13T12:22:53;4.15;;;1.70;;
34896;SDS011;43407;51.828;-2.298;2023-07-13T12:25:19;3.63;;;1.15;;
34896;SDS011;43407;51.828;-2.298;2023-07-13T12:27:49;4.15;;;1.70;;
34896;SDS011;43407;51.828;-2.298;2023-07-13T12:30:26;2.10;;;1.50;;
34896;SDS011;43407;51.828;-2.298;2023-07-13T12:35:31;4.72;;;1.63;;
34896;SDS011;43407;51.828;-2.298;2023-07-13T12:38:00;3.72;;;1.45;;
34896;SDS011;43407;51.828;-2.298;2023-07-13T12:40:28;3.28;;;1.35;;
34896;SDS011;43407;51.828;-2.298;2023-07-13T12:42:57;2.22;;;1.58;;
34896;SDS011;43407;51.828;-2.298;2023-07-13T12:45:25;6.07;;;1.73;;
34896;SDS011;43407;51.828;-2.298;2023-07-13T12:48:15;4.03;;;1.73;;
34896;SDS011;43407;51.828;-2.298;2023-07-13T12:50:41;4.03;;;1.80;;
34896;SDS011;43407;51.828;-2.298;2023-07-13T12:53:12;4.25;;;2.40;;
34896;SDS011;43407;51.828;-2.298;2023-07-13T12:55:49;3.00;;;1.85;;
34896;SDS011;43407;51.828;-2.298;2023-07-13T12:58:24;2.53;;;1.55;;
34896;SDS011;43407;51.828;-2.298;2023-07-13T13:01:04;4.65;;;1.95;;
34896;SDS011;43407;51.828;-2.298;2023-07-13T13:03:31;2.30;;;1.70;;
34896;SDS011;43407;51.828;-2.298;2023-07-13T13:06:05;2.63;;;1.80;;
34896;SDS011;43407;51.828;-2.298;2023-07-13T13:08:40;2.40;;;2.17;;
34896;SDS011;43407;51.828;-2.298;2023-07-13T13:11:07;3.53;;;2.03;;
34896;SDS011;43407;51.828;-2.298;2023-07-13T13:13:34;2.95;;;1.95;;
34896;SDS011;43407;51.828;-2.298;2023-07-13T13:16:14;2.53;;;2.20;;
34896;SDS011;43407;51.828;-2.298;2023-07-13T13:18:45;2.15;;;1.88;;
34896;SDS011;43407;51.828;-2.298;2023-07-13T13:21:11;2.20;;;1.98;;
34896;SDS011;43407;51.828;-2.298;2023-07-13T13:23:37;3.53;;;2.10;;
34896;SDS011;43407;51.828;-2.298;2023-07-13T13:26:04;2.38;;;1.80;;
34896;SDS011;43407;51.828;-2.298;2023-07-13T13:28:33;2.03;;;1.80;;
34896;SDS011;43407;51.828;-2.298;2023-07-13T13:30:59;1.77;;;1.33;;
34896;SDS011;43407;51.828;-2.298;2023-07-13T13:33:24;2.38;;;1.70;;
34896;SDS011;43407;51.828;-2.298;2023-07-13T13:35:50;1.60;;;1.50;;
34896;SDS011;43407;51.828;-2.298;2023-07-13T13:38:17;1.90;;;1.70;;
34896;SDS011;43407;51.828;-2.298;2023-07-13T13:40:45;3.90;;;1.80;;
34896;SDS011;43407;51.828;-2.298;2023-07-13T13:43:15;3.35;;;1.67;;
34896;SDS011;43407;51.828;-2.298;2023-07-13T13:45:45;4.15;;;1.67;;
34896;SDS011;43407;51.828;-2.298;2023-07-13T13:48:16;2.25;;;1.58;;
34896;SDS011;43407;51.828;-2.298;2023-07-13T13:50:43;2.47;;;1.30;;
34896;SDS011;43407;51.828;-2.298;2023-07-13T13:53:12;3.92;;;1.50;;
34896;SDS011;43407;51.828;-2.298;2023-07-13T13:55:41;2.05;;;1.38;;
34896;SDS011;43407;51.828;-2.298;2023-07-13T13:58:10;2.25;;;1.35;;
34896;SDS011;43407;51.828;-2.298;2023-07-13T14:00:36;4.10;;;1.38;;
34896;SDS011;43407;51.828;-2.298;2023-07-13T14:03:03;3.55;;;1.20;;
34896;SDS011;43407;51.828;-2.298;2023-07-13T14:05:28;1.75;;;1.20;;
34896;SDS011;43407;51.828;-2.298;2023-07-13T14:07:55;5.30;;;1.40;;
34896;SDS011;43407;51.828;-2.298;2023-07-13T14:10:22;4.28;;;1.50;;
34896;SDS011;43407;51.828;-2.298;2023-07-13T14:12:52;2.38;;;1.45;;
34896;SDS011;43407;51.828;-2.298;2023-07-13T14:15:26;2.13;;;1.27;;
34896;SDS011;43407;51.828;-2.298;2023-07-13T14:17:53;7.32;;;1.40;;
34896;SDS011;43407;51.828;-2.298;2023-07-13T14:20:20;3.83;;;1.50;;
34896;SDS011;43407;51.828;-2.298;2023-07-13T14:22:49;3.08;;;1.40;;
34896;SDS011;43407;51.828;-2.298;2023-07-13T14:25:15;2.63;;;1.40;;
34896;SDS011;43407;51.828;-2.298;2023-07-13T14:27:42;3.35;;;1.40;;
34896;SDS011;43407;51.828;-2.298;2023-07-13T14:30:13;4.10;;;1.45;;
34896;SDS011;43407;51.828;-2.298;2023-07-13T14:32:39;3.42;;;1.35;;
34896;SDS011;43407;51.828;-2.298;2023-07-13T14:35:05;3.70;;;1.50;;
34896;SDS011;43407;51.828;-2.298;2023-07-13T14:37:32;3.65;;;1.48;;
34896;SDS011;43407;51.828;-2.298;2023-07-13T14:39:58;1.73;;;1.23;;
34896;SDS011;43407;51.828;-2.298;2023-07-13T14:42:23;1.73;;;1.20;;
34896;SDS011;43407;51.828;-2.298;2023-07-13T14:44:49;4.28;;;1.40;;
34896;SDS011;43407;51.828;-2.298;2023-07-13T14:47:15;1.60;;;1.50;;
34896;SDS011;43407;51.828;-2.298;2023-07-13T14:49:43;2.72;;;1.40;;
34896;SDS011;43407;51.828;-2.298;2023-07-13T14:52:27;2.17;;;1.50;;
34896;SDS011;43407;51.828;-2.298;2023-07-13T14:54:53;2.20;;;1.40;;
34896;SDS011;43407;51.828;-2.298;2023-07-13T14:57:19;1.90;;;1.30;;
34896;SDS011;43407;51.828;-2.298;2023-07-13T14:59:45;1.73;;;1.20;;
34896;SDS011;43407;51.828;-2.298;2023-07-13T15:02:15;1.95;;;1.30;;
34896;SDS011;43407;51.828;-2.298;2023-07-13T15:05:05;2.33;;;1.40;;
34896;SDS011;43407;51.828;-2.298;2023-07-13T15:07:37;1.58;;;1.08;;
34896;SDS011;43407;51.828;-2.298;2023-07-13T15:10:08;2.13;;;1.40;;
34896;SDS011;43407;51.828;-2.298;2023-07-13T15:12:40;2.20;;;1.63;;
34896;SDS011;43407;51.828;-2.298;2023-07-13T15:15:06;2.25;;;1.30;;
34896;SDS011;43407;51.828;-2.298;2023-07-13T15:22:53;4.93;;;1.60;;
34896;SDS011;43407;51.828;-2.298;2023-07-13T15:25:20;2.58;;;1.50;;
34896;SDS011;43407;51.828;-2.298;2023-07-13T15:27:47;2.03;;;1.50;;
34896;SDS011;43407;51.828;-2.298;2023-07-13T15:30:13;3.58;;;1.42;;
34896;SDS011;43407;51.828;-2.298;2023-07-13T15:32:39;4.45;;;1.45;;
34896;SDS011;43407;51.828;-2.298;2023-07-13T15:35:13;1.98;;;1.40;;
34896;SDS011;43407;51.828;-2.298;2023-07-13T15:37:39;1.60;;;1.20;;